sensor_id;sensor_type;location;lat;lon;timestamp;temperature;humidity
21770;DHT22;11046;49.558;8.674;2022-09-23T00:02:02;11.70;67.10
21770;DHT22;11046;49.558;8.674;2022-09-23T00:05:12;11.70;67.20
21770;DHT22;11046;49.558;8.674;2022-09-23T00:08:17;11.60;67.30
21770;DHT22;11046;49.558;8.674;2022-09-23T00:11:26;11.70;67.60
21770;DHT22;11046;49.558;8.674;2022-09-23T00:14:31;11.70;67.30
21770;DHT22;11046;49.558;8.674;2022-09-23T00:17:36;11.70;67.10
21770;DHT22;11046;49.558;8.674;2022-09-23T00:20:38;11.70;67.10
21770;DHT22;11046;49.558;8.674;2022-09-23T00:23:42;11.70;66.90
21770;DHT22;11046;49.558;8.674;2022-09-23T00:26:46;11.70;66.80
21770;DHT22;11046;49.558;8.674;2022-09-23T00:29:51;11.70;66.70
21770;DHT22;11046;49.558;8.674;2022-09-23T00:32:57;11.70;66.70
21770;DHT22;11046;49.558;8.674;2022-09-23T00:36:04;11.70;66.70
21770;DHT22;11046;49.558;8.674;2022-09-23T00:39:09;11.60;66.80
21770;DHT22;11046;49.558;8.674;2022-09-23T00:42:16;11.60;67.10
21770;DHT22;11046;49.558;8.674;2022-09-23T00:45:20;11.60;67.20
21770;DHT22;11046;49.558;8.674;2022-09-23T00:48:22;11.60;67.10
21770;DHT22;11046;49.558;8.674;2022-09-23T00:51:30;11.60;66.90
21770;DHT22;11046;49.558;8.674;2022-09-23T00:54:39;11.60;66.90
21770;DHT22;11046;49.558;8.674;2022-09-23T00:57:46;11.60;66.90
21770;DHT22;11046;49.558;8.674;2022-09-23T01:00:48;11.60;66.80
21770;DHT22;11046;49.558;8.674;2022-09-23T01:03:55;11.70;66.60
21770;DHT22;11046;49.558;8.674;2022-09-23T01:06:58;11.70;66.50
21770;DHT22;11046;49.558;8.674;2022-09-23T01:10:04;11.70;66.50
21770;DHT22;11046;49.558;8.674;2022-09-23T01:13:31;11.70;66.50
21770;DHT22;11046;49.558;8.674;2022-09-23T01:20:22;11.70;66.20
21770;DHT22;11046;49.558;8.674;2022-09-23T01:30:25;11.70;66.10
21770;DHT22;11046;49.558;8.674;2022-09-23T01:33:52;11.60;66.10
21770;DHT22;11046;49.558;8.674;2022-09-23T01:37:14;11.60;66.20
21770;DHT22;11046;49.558;8.674;2022-09-23T01:47:11;11.30;66.60
21770;DHT22;11046;49.558;8.674;2022-09-23T01:50:19;11.30;66.80
21770;DHT22;11046;49.558;8.674;2022-09-23T01:53:55;11.30;66.90
21770;DHT22;11046;49.558;8.674;2022-09-23T01:57:45;11.20;66.80
21770;DHT22;11046;49.558;8.674;2022-09-23T02:00:58;11.20;66.90
21770;DHT22;11046;49.558;8.674;2022-09-23T02:04:09;11.20;66.90
21770;DHT22;11046;49.558;8.674;2022-09-23T02:10:54;11.20;67.10
21770;DHT22;11046;49.558;8.674;2022-09-23T02:14:07;11.10;67.10
21770;DHT22;11046;49.558;8.674;2022-09-23T02:17:15;11.00;67.30
21770;DHT22;11046;49.558;8.674;2022-09-23T02:20:28;10.90;67.60
21770;DHT22;11046;49.558;8.674;2022-09-23T02:23:41;10.80;67.70
21770;DHT22;11046;49.558;8.674;2022-09-23T02:26:57;10.70;68.00
21770;DHT22;11046;49.558;8.674;2022-09-23T02:30:16;10.60;68.30
21770;DHT22;11046;49.558;8.674;2022-09-23T02:33:37;10.50;68.70
21770;DHT22;11046;49.558;8.674;2022-09-23T02:43:40;9.90;69.90
21770;DHT22;11046;49.558;8.674;2022-09-23T02:46:47;9.80;70.20
21770;DHT22;11046;49.558;8.674;2022-09-23T02:49:53;9.70;70.50
21770;DHT22;11046;49.558;8.674;2022-09-23T02:52:59;9.60;70.70
21770;DHT22;11046;49.558;8.674;2022-09-23T02:56:20;9.50;71.00
21770;DHT22;11046;49.558;8.674;2022-09-23T02:59:26;9.50;72.40
21770;DHT22;11046;49.558;8.674;2022-09-23T03:06:36;9.30;72.30
21770;DHT22;11046;49.558;8.674;2022-09-23T03:09:45;9.20;72.30
21770;DHT22;11046;49.558;8.674;2022-09-23T03:12:57;9.20;72.20
21770;DHT22;11046;49.558;8.674;2022-09-23T03:16:11;9.20;72.60
21770;DHT22;11046;49.558;8.674;2022-09-23T03:22:43;9.10;73.10
21770;DHT22;11046;49.558;8.674;2022-09-23T03:25:48;9.10;73.30
21770;DHT22;11046;49.558;8.674;2022-09-23T03:28:57;9.20;73.20
21770;DHT22;11046;49.558;8.674;2022-09-23T03:32:06;9.20;73.10
21770;DHT22;11046;49.558;8.674;2022-09-23T03:35:11;9.20;73.10
21770;DHT22;11046;49.558;8.674;2022-09-23T03:38:15;9.20;73.20
21770;DHT22;11046;49.558;8.674;2022-09-23T03:41:51;9.20;73.30
21770;DHT22;11046;49.558;8.674;2022-09-23T03:44:56;9.20;73.30
21770;DHT22;11046;49.558;8.674;2022-09-23T03:48:02;9.20;73.10
21770;DHT22;11046;49.558;8.674;2022-09-23T03:51:21;9.20;73.20
21770;DHT22;11046;49.558;8.674;2022-09-23T03:54:27;9.20;73.60
21770;DHT22;11046;49.558;8.674;2022-09-23T03:57:31;9.20;73.30
21770;DHT22;11046;49.558;8.674;2022-09-23T04:00:33;9.10;73.40
21770;DHT22;11046;49.558;8.674;2022-09-23T04:03:42;9.00;73.70
21770;DHT22;11046;49.558;8.674;2022-09-23T04:06:44;9.00;73.90
21770;DHT22;11046;49.558;8.674;2022-09-23T04:09:47;8.90;73.90
21770;DHT22;11046;49.558;8.674;2022-09-23T04:12:53;8.80;74.10
21770;DHT22;11046;49.558;8.674;2022-09-23T04:15:55;8.70;74.40
21770;DHT22;11046;49.558;8.674;2022-09-23T04:18:58;8.70;74.60
21770;DHT22;11046;49.558;8.674;2022-09-23T04:22:01;8.70;74.80
21770;DHT22;11046;49.558;8.674;2022-09-23T04:25:06;8.60;74.90
21770;DHT22;11046;49.558;8.674;2022-09-23T04:28:08;8.60;75.00
21770;DHT22;11046;49.558;8.674;2022-09-23T04:31:10;8.50;75.10
21770;DHT22;11046;49.558;8.674;2022-09-23T04:34:16;8.40;75.20
21770;DHT22;11046;49.558;8.674;2022-09-23T04:37:19;8.30;75.30
21770;DHT22;11046;49.558;8.674;2022-09-23T04:40:28;8.30;75.50
21770;DHT22;11046;49.558;8.674;2022-09-23T04:43:38;8.30;75.70
21770;DHT22;11046;49.558;8.674;2022-09-23T04:46:42;8.20;75.80
21770;DHT22;11046;49.558;8.674;2022-09-23T04:49:54;8.20;76.00
21770;DHT22;11046;49.558;8.674;2022-09-23T04:52:55;8.10;76.20
21770;DHT22;11046;49.558;8.674;2022-09-23T04:56:10;8.00;76.50
21770;DHT22;11046;49.558;8.674;2022-09-23T04:59:14;8.00;76.70
21770;DHT22;11046;49.558;8.674;2022-09-23T05:02:23;8.00;76.80
21770;DHT22;11046;49.558;8.674;2022-09-23T05:05:30;7.90;77.00
21770;DHT22;11046;49.558;8.674;2022-09-23T05:08:34;7.80;77.40
21770;DHT22;11046;49.558;8.674;2022-09-23T05:11:39;7.80;77.50
21770;DHT22;11046;49.558;8.674;2022-09-23T05:14:44;7.90;77.70
21770;DHT22;11046;49.558;8.674;2022-09-23T05:17:51;7.90;77.60
21770;DHT22;11046;49.558;8.674;2022-09-23T05:21:04;7.90;77.80
21770;DHT22;11046;49.558;8.674;2022-09-23T05:24:09;7.90;78.00
21770;DHT22;11046;49.558;8.674;2022-09-23T05:27:13;7.90;77.80
21770;DHT22;11046;49.558;8.674;2022-09-23T05:30:18;7.90;78.00
21770;DHT22;11046;49.558;8.674;2022-09-23T05:33:20;7.90;78.00
21770;DHT22;11046;49.558;8.674;2022-09-23T05:36:24;7.90;78.30
21770;DHT22;11046;49.558;8.674;2022-09-23T05:39:30;7.90;78.50
21770;DHT22;11046;49.558;8.674;2022-09-23T05:42:40;7.90;78.80
21770;DHT22;11046;49.558;8.674;2022-09-23T05:45:44;7.80;79.10
21770;DHT22;11046;49.558;8.674;2022-09-23T05:48:50;7.90;79.20
21770;DHT22;11046;49.558;8.674;2022-09-23T05:51:55;7.90;79.50
21770;DHT22;11046;49.558;8.674;2022-09-23T05:54:57;8.00;79.60
21770;DHT22;11046;49.558;8.674;2022-09-23T05:58:06;8.10;79.60
21770;DHT22;11046;49.558;8.674;2022-09-23T06:01:13;8.10;79.70
21770;DHT22;11046;49.558;8.674;2022-09-23T06:04:20;8.30;79.80
21770;DHT22;11046;49.558;8.674;2022-09-23T06:07:27;8.40;79.50
21770;DHT22;11046;49.558;8.674;2022-09-23T06:10:38;8.60;79.60
21770;DHT22;11046;49.558;8.674;2022-09-23T06:13:43;8.70;80.30
21770;DHT22;11046;49.558;8.674;2022-09-23T06:16:45;8.80;79.50
21770;DHT22;11046;49.558;8.674;2022-09-23T06:19:52;8.90;79.50
21770;DHT22;11046;49.558;8.674;2022-09-23T06:23:09;9.00;79.60
21770;DHT22;11046;49.558;8.674;2022-09-23T06:26:18;9.10;79.80
21770;DHT22;11046;49.558;8.674;2022-09-23T06:29:25;9.30;79.40
21770;DHT22;11046;49.558;8.674;2022-09-23T06:32:28;9.40;79.40
21770;DHT22;11046;49.558;8.674;2022-09-23T06:35:29;9.50;79.30
21770;DHT22;11046;49.558;8.674;2022-09-23T06:38:39;9.60;79.30
21770;DHT22;11046;49.558;8.674;2022-09-23T06:41:44;9.60;79.60
21770;DHT22;11046;49.558;8.674;2022-09-23T06:44:56;9.80;79.50
21770;DHT22;11046;49.558;8.674;2022-09-23T06:48:02;10.00;79.20
21770;DHT22;11046;49.558;8.674;2022-09-23T06:51:06;10.10;79.00
21770;DHT22;11046;49.558;8.674;2022-09-23T06:54:09;10.20;78.80
21770;DHT22;11046;49.558;8.674;2022-09-23T06:57:11;10.30;78.60
21770;DHT22;11046;49.558;8.674;2022-09-23T07:00:13;10.40;78.50
21770;DHT22;11046;49.558;8.674;2022-09-23T07:03:19;10.40;78.40
21770;DHT22;11046;49.558;8.674;2022-09-23T07:06:29;10.60;78.70
21770;DHT22;11046;49.558;8.674;2022-09-23T07:09:34;10.70;78.60
21770;DHT22;11046;49.558;8.674;2022-09-23T07:12:39;10.80;78.40
21770;DHT22;11046;49.558;8.674;2022-09-23T07:15:54;11.00;78.40
21770;DHT22;11046;49.558;8.674;2022-09-23T07:18:59;11.00;78.20
21770;DHT22;11046;49.558;8.674;2022-09-23T07:22:05;11.10;78.00
21770;DHT22;11046;49.558;8.674;2022-09-23T07:25:10;11.10;77.90
21770;DHT22;11046;49.558;8.674;2022-09-23T07:28:17;11.30;77.90
21770;DHT22;11046;49.558;8.674;2022-09-23T07:31:22;11.40;77.70
21770;DHT22;11046;49.558;8.674;2022-09-23T07:34:25;11.50;77.60
21770;DHT22;11046;49.558;8.674;2022-09-23T07:37:28;11.60;77.70
21770;DHT22;11046;49.558;8.674;2022-09-23T07:40:33;11.80;77.70
21770;DHT22;11046;49.558;8.674;2022-09-23T07:43:38;12.00;77.30
21770;DHT22;11046;49.558;8.674;2022-09-23T07:46:44;12.30;76.90
21770;DHT22;11046;49.558;8.674;2022-09-23T07:49:52;12.50;76.40
21770;DHT22;11046;49.558;8.674;2022-09-23T07:52:58;12.70;75.90
21770;DHT22;11046;49.558;8.674;2022-09-23T07:56:07;12.90;75.30
21770;DHT22;11046;49.558;8.674;2022-09-23T07:59:14;13.10;74.90
21770;DHT22;11046;49.558;8.674;2022-09-23T08:02:17;13.20;74.50
21770;DHT22;11046;49.558;8.674;2022-09-23T08:05:24;13.40;74.30
21770;DHT22;11046;49.558;8.674;2022-09-23T08:08:29;13.60;73.90
21770;DHT22;11046;49.558;8.674;2022-09-23T08:11:30;13.80;73.20
21770;DHT22;11046;49.558;8.674;2022-09-23T08:14:39;14.10;73.00
21770;DHT22;11046;49.558;8.674;2022-09-23T08:17:46;14.40;72.90
21770;DHT22;11046;49.558;8.674;2022-09-23T08:20:51;14.60;71.80
21770;DHT22;11046;49.558;8.674;2022-09-23T08:23:59;14.70;71.60
21770;DHT22;11046;49.558;8.674;2022-09-23T08:27:04;14.80;71.20
21770;DHT22;11046;49.558;8.674;2022-09-23T08:30:09;15.00;71.00
21770;DHT22;11046;49.558;8.674;2022-09-23T08:33:18;15.10;70.50
21770;DHT22;11046;49.558;8.674;2022-09-23T08:36:30;15.10;69.90
21770;DHT22;11046;49.558;8.674;2022-09-23T08:39:38;15.20;69.90
21770;DHT22;11046;49.558;8.674;2022-09-23T08:42:50;15.50;70.20
21770;DHT22;11046;49.558;8.674;2022-09-23T08:46:09;15.70;69.40
21770;DHT22;11046;49.558;8.674;2022-09-23T08:49:34;15.80;68.60
21770;DHT22;11046;49.558;8.674;2022-09-23T08:53:11;15.70;68.10
21770;DHT22;11046;49.558;8.674;2022-09-23T08:56:22;15.80;68.00
21770;DHT22;11046;49.558;8.674;2022-09-23T08:59:44;16.10;67.70
21770;DHT22;11046;49.558;8.674;2022-09-23T09:02:53;16.30;66.60
21770;DHT22;11046;49.558;8.674;2022-09-23T09:06:10;16.50;66.60
21770;DHT22;11046;49.558;8.674;2022-09-23T09:09:31;16.70;65.70
21770;DHT22;11046;49.558;8.674;2022-09-23T09:12:49;16.80;65.40
21770;DHT22;11046;49.558;8.674;2022-09-23T09:23:43;17.50;63.00
21770;DHT22;11046;49.558;8.674;2022-09-23T09:26:32;17.70;63.20
21770;DHT22;11046;49.558;8.674;2022-09-23T09:29:50;17.70;63.00
21770;DHT22;11046;49.558;8.674;2022-09-23T09:33:39;17.80;62.40
21770;DHT22;11046;49.558;8.674;2022-09-23T09:40:14;18.00;61.00
21770;DHT22;11046;49.558;8.674;2022-09-23T09:43:50;18.20;61.40
21770;DHT22;11046;49.558;8.674;2022-09-23T09:51:16;18.00;60.20
21770;DHT22;11046;49.558;8.674;2022-09-23T09:54:30;18.10;60.40
21770;DHT22;11046;49.558;8.674;2022-09-23T10:00:48;18.60;59.70
21770;DHT22;11046;49.558;8.674;2022-09-23T10:03:57;18.90;59.60
21770;DHT22;11046;49.558;8.674;2022-09-23T10:07:16;19.00;58.90
21770;DHT22;11046;49.558;8.674;2022-09-23T10:10:34;19.20;57.90
21770;DHT22;11046;49.558;8.674;2022-09-23T10:13:40;19.40;58.00
21770;DHT22;11046;49.558;8.674;2022-09-23T10:16:42;19.50;58.00
21770;DHT22;11046;49.558;8.674;2022-09-23T10:20:02;19.60;57.70
21770;DHT22;11046;49.558;8.674;2022-09-23T10:23:22;19.70;56.70
21770;DHT22;11046;49.558;8.674;2022-09-23T10:26:51;19.50;57.10
21770;DHT22;11046;49.558;8.674;2022-09-23T10:30:18;19.60;56.60
21770;DHT22;11046;49.558;8.674;2022-09-23T10:33:26;19.80;56.40
21770;DHT22;11046;49.558;8.674;2022-09-23T10:36:32;19.90;56.20
21770;DHT22;11046;49.558;8.674;2022-09-23T10:39:47;20.00;55.30
21770;DHT22;11046;49.558;8.674;2022-09-23T10:47:41;20.00;54.70
21770;DHT22;11046;49.558;8.674;2022-09-23T11:05:57;20.80;53.30
21770;DHT22;11046;49.558;8.674;2022-09-23T11:13:32;20.70;52.50
21770;DHT22;11046;49.558;8.674;2022-09-23T11:17:15;20.80;52.30
21770;DHT22;11046;49.558;8.674;2022-09-23T11:21:11;20.80;50.70
21770;DHT22;11046;49.558;8.674;2022-09-23T11:38:41;20.70;50.90
21770;DHT22;11046;49.558;8.674;2022-09-23T11:41:36;20.80;50.70
21770;DHT22;11046;49.558;8.674;2022-09-23T11:44:54;20.80;51.10
21770;DHT22;11046;49.558;8.674;2022-09-23T11:48:35;20.80;51.30
21770;DHT22;11046;49.558;8.674;2022-09-23T11:52:02;20.90;50.80
21770;DHT22;11046;49.558;8.674;2022-09-23T11:58:22;21.10;51.60
21770;DHT22;11046;49.558;8.674;2022-09-23T12:01:41;21.10;50.90
21770;DHT22;11046;49.558;8.674;2022-09-23T12:05:05;21.20;50.60
21770;DHT22;11046;49.558;8.674;2022-09-23T12:08:34;21.10;50.40
21770;DHT22;11046;49.558;8.674;2022-09-23T12:12:05;21.00;51.00
21770;DHT22;11046;49.558;8.674;2022-09-23T12:15:51;20.90;50.80
21770;DHT22;11046;49.558;8.674;2022-09-23T12:26:33;20.90;51.10
21770;DHT22;11046;49.558;8.674;2022-09-23T12:29:43;20.80;51.00
21770;DHT22;11046;49.558;8.674;2022-09-23T12:33:28;20.80;50.80
21770;DHT22;11046;49.558;8.674;2022-09-23T12:36:34;20.80;51.20
21770;DHT22;11046;49.558;8.674;2022-09-23T12:39:45;20.80;50.90
21770;DHT22;11046;49.558;8.674;2022-09-23T12:42:48;20.80;51.10
21770;DHT22;11046;49.558;8.674;2022-09-23T12:46:23;21.00;51.40
21770;DHT22;11046;49.558;8.674;2022-09-23T12:49:36;21.20;50.70
21770;DHT22;11046;49.558;8.674;2022-09-23T12:52:39;21.30;50.60
21770;DHT22;11046;49.558;8.674;2022-09-23T12:55:44;21.40;50.60
21770;DHT22;11046;49.558;8.674;2022-09-23T13:01:52;21.50;50.20
21770;DHT22;11046;49.558;8.674;2022-09-23T13:05:18;21.50;50.30
21770;DHT22;11046;49.558;8.674;2022-09-23T13:08:42;21.40;50.00
21770;DHT22;11046;49.558;8.674;2022-09-23T13:11:49;21.20;50.50
21770;DHT22;11046;49.558;8.674;2022-09-23T13:15:22;21.20;50.70
21770;DHT22;11046;49.558;8.674;2022-09-23T13:18:49;21.40;50.10
21770;DHT22;11046;49.558;8.674;2022-09-23T13:22:09;21.60;50.20
21770;DHT22;11046;49.558;8.674;2022-09-23T13:25:40;21.70;50.10
21770;DHT22;11046;49.558;8.674;2022-09-23T13:28:56;21.90;49.90
21770;DHT22;11046;49.558;8.674;2022-09-23T13:32:10;22.10;49.80
21770;DHT22;11046;49.558;8.674;2022-09-23T13:35:18;22.40;49.80
21770;DHT22;11046;49.558;8.674;2022-09-23T13:38:27;22.50;49.10
21770;DHT22;11046;49.558;8.674;2022-09-23T13:41:32;22.40;49.00
21770;DHT22;11046;49.558;8.674;2022-09-23T13:44:39;22.50;49.20
21770;DHT22;11046;49.558;8.674;2022-09-23T13:47:48;22.40;48.50
21770;DHT22;11046;49.558;8.674;2022-09-23T13:50:55;22.20;48.70
21770;DHT22;11046;49.558;8.674;2022-09-23T13:53:59;22.10;48.80
21770;DHT22;11046;49.558;8.674;2022-09-23T13:57:19;21.90;48.30
21770;DHT22;11046;49.558;8.674;2022-09-23T14:00:25;21.60;48.30
21770;DHT22;11046;49.558;8.674;2022-09-23T14:06:39;21.20;49.70
21770;DHT22;11046;49.558;8.674;2022-09-23T14:09:50;21.00;49.70
21770;DHT22;11046;49.558;8.674;2022-09-23T14:12:56;21.00;50.00
21770;DHT22;11046;49.558;8.674;2022-09-23T14:16:01;20.70;49.90
21770;DHT22;11046;49.558;8.674;2022-09-23T14:19:10;20.50;50.40
21770;DHT22;11046;49.558;8.674;2022-09-23T14:22:28;20.50;50.80
21770;DHT22;11046;49.558;8.674;2022-09-23T14:25:33;20.50;50.90
21770;DHT22;11046;49.558;8.674;2022-09-23T14:28:37;20.60;51.20
21770;DHT22;11046;49.558;8.674;2022-09-23T14:31:45;20.60;50.80
21770;DHT22;11046;49.558;8.674;2022-09-23T14:38:05;20.60;50.70
21770;DHT22;11046;49.558;8.674;2022-09-23T14:41:48;20.60;50.50
21770;DHT22;11046;49.558;8.674;2022-09-23T14:44:58;20.50;50.80
21770;DHT22;11046;49.558;8.674;2022-09-23T14:48:05;20.40;51.00
21770;DHT22;11046;49.558;8.674;2022-09-23T14:51:17;20.30;50.90
21770;DHT22;11046;49.558;8.674;2022-09-23T14:57:38;20.20;51.20
21770;DHT22;11046;49.558;8.674;2022-09-23T15:00:59;20.10;51.30
21770;DHT22;11046;49.558;8.674;2022-09-23T15:07:36;19.90;51.30
21770;DHT22;11046;49.558;8.674;2022-09-23T15:10:46;19.90;51.40
21770;DHT22;11046;49.558;8.674;2022-09-23T15:13:57;19.80;51.40
21770;DHT22;11046;49.558;8.674;2022-09-23T15:17:10;19.80;51.50
21770;DHT22;11046;49.558;8.674;2022-09-23T15:20:26;19.90;51.30
21770;DHT22;11046;49.558;8.674;2022-09-23T15:23:52;19.70;51.40
21770;DHT22;11046;49.558;8.674;2022-09-23T15:27:33;19.70;51.60
21770;DHT22;11046;49.558;8.674;2022-09-23T15:30:51;19.60;52.20
21770;DHT22;11046;49.558;8.674;2022-09-23T15:33:57;19.50;52.50
21770;DHT22;11046;49.558;8.674;2022-09-23T15:37:01;19.50;52.40
21770;DHT22;11046;49.558;8.674;2022-09-23T15:43:38;19.60;52.50
21770;DHT22;11046;49.558;8.674;2022-09-23T15:47:14;19.50;52.60
21770;DHT22;11046;49.558;8.674;2022-09-23T15:50:20;19.30;52.40
21770;DHT22;11046;49.558;8.674;2022-09-23T15:53:31;19.30;52.60
21770;DHT22;11046;49.558;8.674;2022-09-23T15:56:49;19.30;52.60
21770;DHT22;11046;49.558;8.674;2022-09-23T15:59:57;19.10;52.80
21770;DHT22;11046;49.558;8.674;2022-09-23T16:03:16;19.10;53.10
21770;DHT22;11046;49.558;8.674;2022-09-23T16:06:23;19.00;53.30
21770;DHT22;11046;49.558;8.674;2022-09-23T16:09:32;18.90;53.60
21770;DHT22;11046;49.558;8.674;2022-09-23T16:12:47;18.80;54.00
21770;DHT22;11046;49.558;8.674;2022-09-23T16:15:52;18.70;53.80
21770;DHT22;11046;49.558;8.674;2022-09-23T16:19:34;18.60;53.80
21770;DHT22;11046;49.558;8.674;2022-09-23T16:23:03;18.50;54.60
21770;DHT22;11046;49.558;8.674;2022-09-23T16:26:28;18.40;55.00
21770;DHT22;11046;49.558;8.674;2022-09-23T16:29:55;18.30;55.40
21770;DHT22;11046;49.558;8.674;2022-09-23T16:33:28;18.30;56.00
21770;DHT22;11046;49.558;8.674;2022-09-23T16:40:58;18.10;57.30
21770;DHT22;11046;49.558;8.674;2022-09-23T16:44:13;17.90;57.90
21770;DHT22;11046;49.558;8.674;2022-09-23T16:47:49;17.90;58.40
21770;DHT22;11046;49.558;8.674;2022-09-23T16:51:13;17.70;58.60
21770;DHT22;11046;49.558;8.674;2022-09-23T16:54:30;17.60;59.00
21770;DHT22;11046;49.558;8.674;2022-09-23T17:02:34;17.30;60.50
21770;DHT22;11046;49.558;8.674;2022-09-23T17:06:01;17.10;60.30
21770;DHT22;11046;49.558;8.674;2022-09-23T17:09:14;16.90;60.60
21770;DHT22;11046;49.558;8.674;2022-09-23T17:12:54;16.80;61.40
21770;DHT22;11046;49.558;8.674;2022-09-23T17:19:53;16.60;61.80
21770;DHT22;11046;49.558;8.674;2022-09-23T17:23:17;16.40;63.30
21770;DHT22;11046;49.558;8.674;2022-09-23T17:26:24;16.20;62.60
21770;DHT22;11046;49.558;8.674;2022-09-23T17:30:09;16.20;62.70
21770;DHT22;11046;49.558;8.674;2022-09-23T17:33:37;16.20;63.50
21770;DHT22;11046;49.558;8.674;2022-09-23T17:37:19;16.00;63.10
21770;DHT22;11046;49.558;8.674;2022-09-23T17:40:29;15.80;64.10
21770;DHT22;11046;49.558;8.674;2022-09-23T17:43:51;15.80;63.90
21770;DHT22;11046;49.558;8.674;2022-09-23T17:51:30;15.60;64.40
21770;DHT22;11046;49.558;8.674;2022-09-23T17:54:59;15.60;65.10
21770;DHT22;11046;49.558;8.674;2022-09-23T17:58:18;15.50;65.40
21770;DHT22;11046;49.558;8.674;2022-09-23T18:01:33;15.50;65.90
21770;DHT22;11046;49.558;8.674;2022-09-23T18:04:40;15.40;65.60
21770;DHT22;11046;49.558;8.674;2022-09-23T18:08:22;15.30;66.40
21770;DHT22;11046;49.558;8.674;2022-09-23T18:12:05;15.30;67.00
21770;DHT22;11046;49.558;8.674;2022-09-23T18:15:31;15.20;66.90
21770;DHT22;11046;49.558;8.674;2022-09-23T18:19:18;15.10;67.00
21770;DHT22;11046;49.558;8.674;2022-09-23T18:22:56;15.00;67.60
21770;DHT22;11046;49.558;8.674;2022-09-23T18:26:28;15.00;68.40
21770;DHT22;11046;49.558;8.674;2022-09-23T18:29:51;14.90;69.20
21770;DHT22;11046;49.558;8.674;2022-09-23T18:33:11;14.90;69.00
21770;DHT22;11046;49.558;8.674;2022-09-23T18:36:48;14.80;69.00
21770;DHT22;11046;49.558;8.674;2022-09-23T18:40:16;14.80;69.20
21770;DHT22;11046;49.558;8.674;2022-09-23T18:43:39;14.70;69.30
21770;DHT22;11046;49.558;8.674;2022-09-23T18:47:04;14.60;69.70
21770;DHT22;11046;49.558;8.674;2022-09-23T18:50:16;14.60;70.00
21770;DHT22;11046;49.558;8.674;2022-09-23T18:53:48;14.60;69.90
21770;DHT22;11046;49.558;8.674;2022-09-23T18:57:28;14.60;70.20
21770;DHT22;11046;49.558;8.674;2022-09-23T19:01:13;14.50;70.40
21770;DHT22;11046;49.558;8.674;2022-09-23T19:04:24;14.40;70.90
21770;DHT22;11046;49.558;8.674;2022-09-23T19:07:32;14.30;71.50
21770;DHT22;11046;49.558;8.674;2022-09-23T19:10:40;14.30;71.70
21770;DHT22;11046;49.558;8.674;2022-09-23T19:14:12;14.20;72.30
21770;DHT22;11046;49.558;8.674;2022-09-23T19:21:53;14.10;73.10
21770;DHT22;11046;49.558;8.674;2022-09-23T19:25:10;14.00;72.70
21770;DHT22;11046;49.558;8.674;2022-09-23T19:28:53;13.90;73.40
21770;DHT22;11046;49.558;8.674;2022-09-23T19:32:31;13.90;74.00
21770;DHT22;11046;49.558;8.674;2022-09-23T19:36:15;13.90;73.50
21770;DHT22;11046;49.558;8.674;2022-09-23T19:40:12;13.90;74.50
21770;DHT22;11046;49.558;8.674;2022-09-23T19:44:03;13.80;74.20
21770;DHT22;11046;49.558;8.674;2022-09-23T19:47:33;13.70;74.70
21770;DHT22;11046;49.558;8.674;2022-09-23T19:51:03;13.70;74.90
21770;DHT22;11046;49.558;8.674;2022-09-23T19:54:31;13.70;75.20
21770;DHT22;11046;49.558;8.674;2022-09-23T20:06:06;13.80;75.30
21770;DHT22;11046;49.558;8.674;2022-09-23T20:09:29;13.70;75.20
21770;DHT22;11046;49.558;8.674;2022-09-23T20:13:08;13.70;75.70
21770;DHT22;11046;49.558;8.674;2022-09-23T20:16:18;13.70;75.50
21770;DHT22;11046;49.558;8.674;2022-09-23T20:19:29;13.60;75.70
21770;DHT22;11046;49.558;8.674;2022-09-23T20:22:38;13.60;76.10
21770;DHT22;11046;49.558;8.674;2022-09-23T20:26:31;13.60;76.30
21770;DHT22;11046;49.558;8.674;2022-09-23T20:30:30;13.60;76.50
21770;DHT22;11046;49.558;8.674;2022-09-23T20:33:56;13.60;76.20
21770;DHT22;11046;49.558;8.674;2022-09-23T20:37:25;13.50;76.70
21770;DHT22;11046;49.558;8.674;2022-09-23T20:40:43;13.40;76.50
21770;DHT22;11046;49.558;8.674;2022-09-23T20:44:11;13.30;77.10
21770;DHT22;11046;49.558;8.674;2022-09-23T20:47:57;13.30;77.30
21770;DHT22;11046;49.558;8.674;2022-09-23T20:51:41;13.30;77.70
21770;DHT22;11046;49.558;8.674;2022-09-23T20:54:56;13.20;77.60
21770;DHT22;11046;49.558;8.674;2022-09-23T20:58:31;13.20;77.90
21770;DHT22;11046;49.558;8.674;2022-09-23T21:02:40;13.20;78.40
21770;DHT22;11046;49.558;8.674;2022-09-23T21:05:59;13.20;78.00
21770;DHT22;11046;49.558;8.674;2022-09-23T21:09:11;13.20;78.20
21770;DHT22;11046;49.558;8.674;2022-09-23T21:12:43;13.10;78.40
21770;DHT22;11046;49.558;8.674;2022-09-23T21:16:14;13.00;78.90
21770;DHT22;11046;49.558;8.674;2022-09-23T21:19:45;12.90;79.40
21770;DHT22;11046;49.558;8.674;2022-09-23T21:23:12;12.90;79.40
21770;DHT22;11046;49.558;8.674;2022-09-23T21:26:28;12.90;79.30
21770;DHT22;11046;49.558;8.674;2022-09-23T21:29:32;12.90;79.90
21770;DHT22;11046;49.558;8.674;2022-09-23T21:33:20;12.80;79.70
21770;DHT22;11046;49.558;8.674;2022-09-23T21:37:12;12.70;80.20
21770;DHT22;11046;49.558;8.674;2022-09-23T21:41:06;12.70;80.30
21770;DHT22;11046;49.558;8.674;2022-09-23T21:44:19;12.60;80.40
21770;DHT22;11046;49.558;8.674;2022-09-23T21:47:39;12.70;80.80
21770;DHT22;11046;49.558;8.674;2022-09-23T21:51:01;12.70;81.10
21770;DHT22;11046;49.558;8.674;2022-09-23T21:54:16;12.60;81.10
21770;DHT22;11046;49.558;8.674;2022-09-23T21:58:04;12.50;81.20
21770;DHT22;11046;49.558;8.674;2022-09-23T22:01:18;12.50;81.40
21770;DHT22;11046;49.558;8.674;2022-09-23T22:04:27;12.50;81.50
21770;DHT22;11046;49.558;8.674;2022-09-23T22:07:41;12.50;81.50
21770;DHT22;11046;49.558;8.674;2022-09-23T22:10:47;12.50;81.80
21770;DHT22;11046;49.558;8.674;2022-09-23T22:14:08;12.50;82.10
21770;DHT22;11046;49.558;8.674;2022-09-23T22:17:16;12.50;82.30
21770;DHT22;11046;49.558;8.674;2022-09-23T22:20:23;12.50;82.30
21770;DHT22;11046;49.558;8.674;2022-09-23T22:23:45;12.50;82.30
21770;DHT22;11046;49.558;8.674;2022-09-23T22:26:57;12.40;82.70
21770;DHT22;11046;49.558;8.674;2022-09-23T22:30:09;12.30;82.80
21770;DHT22;11046;49.558;8.674;2022-09-23T22:33:36;12.30;83.40
21770;DHT22;11046;49.558;8.674;2022-09-23T22:36:52;12.30;83.30
21770;DHT22;11046;49.558;8.674;2022-09-23T22:40:28;12.30;83.50
21770;DHT22;11046;49.558;8.674;2022-09-23T22:43:37;12.30;83.40
21770;DHT22;11046;49.558;8.674;2022-09-23T22:46:46;12.30;83.30
21770;DHT22;11046;49.558;8.674;2022-09-23T22:49:56;12.30;83.40
21770;DHT22;11046;49.558;8.674;2022-09-23T22:53:09;12.20;83.80
21770;DHT22;11046;49.558;8.674;2022-09-23T22:56:55;12.20;84.00
21770;DHT22;11046;49.558;8.674;2022-09-23T23:00:10;12.10;84.30
21770;DHT22;11046;49.558;8.674;2022-09-23T23:03:16;12.10;84.30
21770;DHT22;11046;49.558;8.674;2022-09-23T23:06:21;12.20;84.40
21770;DHT22;11046;49.558;8.674;2022-09-23T23:09:27;12.20;84.40
21770;DHT22;11046;49.558;8.674;2022-09-23T23:12:39;12.20;84.50